Time,TemperatureF,DewpointF,PressureIn,WindDirection,WindDirectionDegrees,WindSpeedMPH,WindSpeedGustMPH,Humidity,HourlyPrecipIn,Conditions,Clouds,dailyrainin,SolarRadiationWatts/m^2,SoftwareType,DateUTC
2013-04-23 00:03:00,67.0,66.0,-100.00,NE,36,0.0,2.0,95,0.00,,,-99.99,0.000000,,2013-04-23 04:03:00,
2013-04-23 00:11:00,65.0,64.0,-100.00,SE,143,0.0,2.0,96,0.00,,,0.23,0.000000,,2013-04-23 04:11:00,
2013-04-23 00:33:00,65.0,64.0,-100.00,SE,143,0.0,2.0,96,0.00,,,0.23,0.000000,,2013-04-23 04:33:00,
2013-04-23 00:44:00,65.0,64.0,-100.00,SE,143,0.0,2.0,96,0.00,,,0.23,0.000000,,2013-04-23 04:44:00,
2013-04-23 00:53:00,65.0,64.0,-100.00,SE,143,0.0,2.0,96,0.00,,,0.23,0.000000,,2013-04-23 04:53:00,
2013-04-23 01:02:00,65.0,64.0,-100.00,SE,143,0.0,2.0,96,0.00,,,0.23,0.000000,,2013-04-23 05:02:00,
2013-04-23 01:11:00,64.0,63.0,-100.00,NE,40,0.0,0.0,96,0.00,,,0.23,0.000000,,2013-04-23 05:11:00,
2013-04-23 01:43:00,64.0,63.0,-100.00,NE,40,0.0,0.0,96,0.00,,,0.23,0.000000,,2013-04-23 05:43:00,
2013-04-23 01:52:00,64.0,63.0,-100.00,NE,40,0.0,0.0,96,0.00,,,0.23,0.000000,,2013-04-23 05:52:00,
2013-04-23 02:02:00,64.0,63.0,-100.00,NE,40,0.0,0.0,96,0.00,,,0.23,0.000000,,2013-04-23 06:02:00,
2013-04-23 02:11:00,65.0,64.0,-100.00,NNW,338,0.0,2.0,96,0.00,,,0.22,0.000000,,2013-04-23 06:11:00,
2013-04-23 02:33:00,65.0,64.0,-100.00,NNW,338,0.0,2.0,96,0.00,,,0.22,0.000000,,2013-04-23 06:33:00,
2013-04-23 02:42:00,65.0,64.0,-100.00,NNW,338,0.0,2.0,96,0.00,,,0.22,0.000000,,2013-04-23 06:42:00,
2013-04-23 02:52:00,65.0,64.0,-100.00,NNW,338,0.0,2.0,96,0.00,,,0.22,0.000000,,2013-04-23 06:52:00,
2013-04-23 03:02:00,65.0,64.0,-100.00,NNW,338,0.0,2.0,96,0.00,,,0.22,0.000000,,2013-04-23 07:02:00,
2013-04-23 03:11:00,65.0,64.0,-100.00,North,356,1.0,4.0,97,0.00,,,0.22,0.000000,,2013-04-23 07:11:00,
2013-04-23 03:32:00,65.0,64.0,-100.00,North,356,1.0,4.0,97,0.00,,,0.22,0.000000,,2013-04-23 07:32:00,
2013-04-23 03:42:00,65.0,64.0,-100.00,North,356,1.0,4.0,97,0.00,,,0.22,0.000000,,2013-04-23 07:42:00,
2013-04-23 03:52:00,65.0,64.0,-100.00,North,356,1.0,4.0,97,0.00,,,0.22,0.000000,,2013-04-23 07:52:00,
2013-04-23 04:02:00,65.0,64.0,-100.00,North,356,1.0,4.0,97,0.00,,,0.22,0.000000,,2013-04-23 08:02:00,
2013-04-23 04:11:00,65.0,64.0,-100.00,North,350,2.0,6.0,97,0.00,,,0.22,0.000000,,2013-04-23 08:11:00,
2013-04-23 04:32:00,65.0,64.0,-100.00,North,350,2.0,6.0,97,0.00,,,0.22,0.000000,,2013-04-23 08:32:00,
2013-04-23 04:42:00,65.0,64.0,-100.00,North,350,2.0,6.0,97,0.00,,,0.22,0.000000,,2013-04-23 08:42:00,
2013-04-23 04:52:00,65.0,64.0,-100.00,North,350,2.0,6.0,97,0.00,,,0.22,0.000000,,2013-04-23 08:52:00,
2013-04-23 05:02:00,65.0,64.0,-100.00,North,350,2.0,6.0,97,0.00,,,0.22,0.000000,,2013-04-23 09:02:00,
2013-04-23 05:11:00,65.0,64.0,-100.00,NNE,17,4.0,7.0,97,0.00,,,0.22,0.000000,,2013-04-23 09:11:00,
2013-04-23 05:43:00,65.0,64.0,-100.00,NNE,17,4.0,7.0,97,0.00,,,0.22,0.000000,,2013-04-23 09:43:00,
2013-04-23 05:53:00,65.0,64.0,-100.00,NNE,17,4.0,7.0,97,0.00,,,0.22,0.000000,,2013-04-23 09:53:00,
2013-04-23 06:03:00,65.0,64.0,-100.00,NNE,17,4.0,7.0,97,0.00,,,0.22,0.000000,,2013-04-23 10:03:00,
2013-04-23 06:11:00,66.0,65.0,-100.00,North,8,2.0,9.0,97,0.00,,,0.22,0.000000,,2013-04-23 10:11:00,
2013-04-23 06:33:00,66.0,65.0,-100.00,North,8,2.0,9.0,97,0.00,,,0.22,0.000000,,2013-04-23 10:33:00,
2013-04-23 06:43:00,66.0,65.0,-100.00,North,8,2.0,9.0,97,0.00,,,0.22,0.000000,,2013-04-23 10:43:00,
2013-04-23 06:53:00,66.0,65.0,-100.00,North,8,2.0,9.0,97,0.00,,,0.22,0.000000,,2013-04-23 10:53:00,
2013-04-23 07:03:00,66.0,65.0,-100.00,North,8,2.0,9.0,97,0.00,,,0.22,0.000000,,2013-04-23 11:03:00,
2013-04-23 07:11:00,66.0,65.0,-100.00,North,9,2.0,6.0,96,0.00,,,0.22,1.000000,,2013-04-23 11:11:00,
2013-04-23 07:32:00,66.0,65.0,-100.00,North,9,2.0,6.0,96,0.00,,,0.22,1.000000,,2013-04-23 11:32:00,
2013-04-23 07:43:00,66.0,65.0,-100.00,North,9,2.0,6.0,96,0.00,,,0.22,1.000000,,2013-04-23 11:43:00,
2013-04-23 07:53:00,66.0,65.0,-100.00,North,9,2.0,6.0,96,0.00,,,0.22,1.000000,,2013-04-23 11:53:00,
2013-04-23 08:02:00,66.0,65.0,-100.00,North,9,2.0,6.0,96,0.00,,,0.22,1.000000,,2013-04-23 12:02:00,
2013-04-23 09:11:00,70.0,67.0,-100.00,NNE,19,3.0,6.0,90,-99.99,,,0.22,138.000000,,2013-04-23 13:11:00,
2013-04-23 09:42:00,70.0,67.0,-100.00,NNE,19,3.0,6.0,90,-99.99,,,0.22,138.000000,,2013-04-23 13:42:00,
2013-04-23 09:52:00,70.0,67.0,-100.00,NNE,19,3.0,6.0,90,-99.99,,,0.22,138.000000,,2013-04-23 13:52:00,
2013-04-23 10:02:00,70.0,67.0,-100.00,NNE,19,3.0,6.0,90,-99.99,,,0.22,138.000000,,2013-04-23 14:02:00,
2013-04-23 10:11:00,76.0,67.0,-100.00,NNE,13,5.0,10.0,75,0.00,,,0.21,428.000000,,2013-04-23 14:11:00,
2013-04-23 10:42:00,76.0,67.0,-100.00,NNE,13,5.0,10.0,75,0.00,,,0.21,428.000000,,2013-04-23 14:42:00,
2013-04-23 10:52:00,76.0,67.0,-100.00,NNE,13,5.0,10.0,75,0.00,,,0.21,428.000000,,2013-04-23 14:52:00,
2013-04-23 11:01:00,76.0,67.0,-100.00,NNE,13,5.0,10.0,75,0.00,,,0.21,428.000000,,2013-04-23 15:01:00,
2013-04-23 11:11:00,80.0,68.0,-100.00,NE,40,6.0,14.0,66,0.00,,,0.21,615.000000,,2013-04-23 15:11:00,
2013-04-23 11:43:00,80.0,68.0,-100.00,NE,40,6.0,14.0,66,0.00,,,0.21,615.000000,,2013-04-23 15:43:00,
2013-04-23 11:53:00,80.0,68.0,-100.00,NE,40,6.0,14.0,66,0.00,,,0.21,615.000000,,2013-04-23 15:53:00,
2013-04-23 12:03:00,80.0,68.0,-100.00,NE,40,6.0,14.0,66,0.00,,,0.21,615.000000,,2013-04-23 16:03:00,
2013-04-23 12:11:00,82.0,68.0,-100.00,NE,54,4.0,13.0,62,0.00,,,0.21,754.000000,,2013-04-23 16:11:00,
2013-04-23 12:34:00,82.0,68.0,-100.00,NE,54,4.0,13.0,62,0.00,,,0.21,754.000000,,2013-04-23 16:34:00,
2013-04-23 12:43:00,82.0,68.0,-100.00,NE,54,4.0,13.0,62,0.00,,,0.21,754.000000,,2013-04-23 16:43:00,
2013-04-23 12:53:00,82.0,68.0,-100.00,NE,54,4.0,13.0,62,0.00,,,0.21,754.000000,,2013-04-23 16:53:00,
2013-04-23 13:02:00,82.0,68.0,-100.00,NE,54,4.0,13.0,62,0.00,,,0.21,754.000000,,2013-04-23 17:02:00,
2013-04-23 13:11:00,83.0,65.0,-100.00,NNE,29,4.0,12.0,55,0.00,,,0.21,660.000000,,2013-04-23 17:11:00,
2013-04-23 13:33:00,83.0,65.0,-100.00,NNE,29,4.0,12.0,55,0.00,,,0.21,660.000000,,2013-04-23 17:33:00,
2013-04-23 13:43:00,83.0,65.0,-100.00,NNE,29,4.0,12.0,55,0.00,,,0.21,660.000000,,2013-04-23 17:43:00,
2013-04-23 13:53:00,83.0,65.0,-100.00,NNE,29,4.0,12.0,55,0.00,,,0.21,660.000000,,2013-04-23 17:53:00,
2013-04-23 14:02:00,83.0,65.0,-100.00,NNE,29,4.0,12.0,55,0.00,,,0.21,660.000000,,2013-04-23 18:02:00,
2013-04-23 14:11:00,84.0,65.0,-100.00,NE,43,4.0,11.0,53,0.00,,,0.21,751.000000,,2013-04-23 18:11:00,
2013-04-23 14:32:00,84.0,65.0,-100.00,NE,43,4.0,11.0,53,0.00,,,0.21,751.000000,,2013-04-23 18:32:00,
2013-04-23 14:42:00,84.0,65.0,-100.00,NE,43,4.0,11.0,53,0.00,,,0.21,751.000000,,2013-04-23 18:42:00,
2013-04-23 14:52:00,84.0,65.0,-100.00,NE,43,4.0,11.0,53,0.00,,,0.21,751.000000,,2013-04-23 18:52:00,
2013-04-23 15:02:00,84.0,65.0,-100.00,NE,43,4.0,11.0,53,0.00,,,0.21,751.000000,,2013-04-23 19:02:00,
2013-04-23 15:11:00,87.0,64.0,-100.00,NNE,19,4.0,10.0,47,0.00,,,0.16,525.000000,,2013-04-23 19:11:00,
2013-04-23 15:32:00,87.0,64.0,-100.00,NNE,19,4.0,10.0,47,0.00,,,0.16,525.000000,,2013-04-23 19:32:00,
2013-04-23 15:42:00,87.0,64.0,-100.00,NNE,19,4.0,10.0,47,0.00,,,0.16,525.000000,,2013-04-23 19:42:00,
2013-04-23 15:52:00,87.0,64.0,-100.00,NNE,19,4.0,10.0,47,0.00,,,0.16,525.000000,,2013-04-23 19:52:00,
2013-04-23 16:02:00,87.0,64.0,-100.00,NNE,19,4.0,10.0,47,0.00,,,0.16,525.000000,,2013-04-23 20:02:00,
2013-04-23 16:11:00,85.0,62.0,-100.00,NE,49,5.0,13.0,47,0.00,,,0.07,498.000000,,2013-04-23 20:11:00,
2013-04-23 16:32:00,85.0,62.0,-100.00,NE,49,5.0,13.0,47,0.00,,,0.07,498.000000,,2013-04-23 20:32:00,
2013-04-23 16:42:00,85.0,62.0,-100.00,NE,49,5.0,13.0,47,0.00,,,0.07,498.000000,,2013-04-23 20:42:00,
2013-04-23 16:52:00,85.0,62.0,-100.00,NE,49,5.0,13.0,47,0.00,,,0.07,498.000000,,2013-04-23 20:52:00,
2013-04-23 17:02:00,85.0,62.0,-100.00,NE,49,5.0,13.0,47,0.00,,,0.07,498.000000,,2013-04-23 21:02:00,
2013-04-23 17:11:00,85.0,64.0,-100.00,NE,34,5.0,12.0,50,0.00,,,0.03,459.000000,,2013-04-23 21:11:00,
2013-04-23 17:33:00,85.0,64.0,-100.00,NE,34,5.0,12.0,50,0.00,,,0.03,459.000000,,2013-04-23 21:33:00,
2013-04-23 17:43:00,85.0,64.0,-100.00,NE,34,5.0,12.0,50,0.00,,,0.03,459.000000,,2013-04-23 21:43:00,
2013-04-23 17:53:00,85.0,64.0,-100.00,NE,34,5.0,12.0,50,0.00,,,0.03,459.000000,,2013-04-23 21:53:00,
2013-04-23 18:03:00,85.0,64.0,-100.00,NE,34,5.0,12.0,50,0.00,,,0.03,459.000000,,2013-04-23 22:03:00,
2013-04-23 18:11:00,84.0,62.0,-100.00,NE,49,5.0,12.0,47,0.00,,,0.00,334.000000,,2013-04-23 22:11:00,
2013-04-23 18:42:00,84.0,62.0,-100.00,NE,49,5.0,12.0,47,0.00,,,0.00,334.000000,,2013-04-23 22:42:00,
2013-04-23 18:53:00,84.0,62.0,-100.00,NE,49,5.0,12.0,47,0.00,,,0.00,334.000000,,2013-04-23 22:53:00,
2013-04-23 19:03:00,84.0,62.0,-100.00,NE,49,5.0,12.0,47,0.00,,,0.00,334.000000,,2013-04-23 23:03:00,
2013-04-23 19:11:00,79.0,60.0,-100.00,NE,39,4.0,12.0,53,0.00,,,0.00,114.000000,,2013-04-23 23:11:00,
2013-04-23 19:32:00,79.0,60.0,-100.00,NE,39,4.0,12.0,53,0.00,,,0.00,114.000000,,2013-04-23 23:32:00,
2013-04-23 19:42:00,79.0,60.0,-100.00,NE,39,4.0,12.0,53,0.00,,,0.00,114.000000,,2013-04-23 23:42:00,
2013-04-23 19:52:00,79.0,60.0,-100.00,NE,39,4.0,12.0,53,0.00,,,0.00,114.000000,,2013-04-23 23:52:00,
2013-04-23 20:02:00,79.0,60.0,-100.00,NE,39,4.0,12.0,53,0.00,,,0.00,114.000000,,2013-04-24 00:02:00,
2013-04-23 21:43:00,72.0,61.0,-100.00,ENE,65,2.0,6.0,69,-99.99,,,0.00,0.000000,,2013-04-24 01:43:00,
2013-04-23 21:52:00,72.0,61.0,-100.00,ENE,65,2.0,6.0,69,-99.99,,,0.00,0.000000,,2013-04-24 01:52:00,
2013-04-23 22:02:00,72.0,61.0,-100.00,ENE,65,2.0,6.0,69,-99.99,,,0.00,0.000000,,2013-04-24 02:02:00,
2013-04-23 22:11:00,70.0,61.0,-100.00,NE,52,4.0,10.0,73,0.00,,,0.00,0.000000,,2013-04-24 02:11:00,
2013-04-23 22:42:00,70.0,61.0,-100.00,NE,52,4.0,10.0,73,0.00,,,0.00,0.000000,,2013-04-24 02:42:00,
2013-04-23 22:51:00,70.0,61.0,-100.00,NE,52,4.0,10.0,73,0.00,,,0.00,0.000000,,2013-04-24 02:51:00,
2013-04-23 23:02:00,70.0,61.0,-100.00,NE,52,4.0,10.0,73,0.00,,,0.00,0.000000,,2013-04-24 03:02:00,
2013-04-23 23:11:00,68.0,60.0,-100.00,ENE,59,3.0,9.0,76,0.00,,,0.00,0.000000,,2013-04-24 03:11:00,
2013-04-23 23:54:00,68.0,60.0,-100.00,ENE,59,3.0,9.0,76,0.00,,,0.00,0.000000,,2013-04-24 03:54:00,